createdAt,value
2023-02-11T00:02:06.818Z,85.90
2023-02-11T00:04:36.720Z,85.80
2023-02-11T00:07:03.920Z,85.60
2023-02-11T00:09:31.918Z,85.60
2023-02-11T00:11:58.949Z,85.40
2023-02-11T00:14:26.058Z,85.40
2023-02-11T00:16:53.280Z,85.20
2023-02-11T00:19:20.690Z,85.20
2023-02-11T00:21:56.833Z,85.30
2023-02-11T00:24:23.788Z,85.10
2023-02-11T00:26:50.831Z,85.00
2023-02-11T00:29:18.016Z,85.00
2023-02-11T00:31:45.016Z,84.90
2023-02-11T00:34:12.286Z,84.80
2023-02-11T00:36:39.496Z,84.80
2023-02-11T00:39:08.813Z,84.70
2023-02-11T00:41:36.398Z,84.80
2023-02-11T00:44:03.644Z,84.40
2023-02-11T00:46:30.674Z,84.50
2023-02-11T00:48:58.088Z,84.50
2023-02-11T00:51:28.835Z,84.80
2023-02-11T00:53:56.504Z,84.90
2023-02-11T00:56:23.773Z,84.70
2023-02-11T00:58:53.675Z,84.70
2023-02-11T01:01:21.515Z,84.90
2023-02-11T01:03:48.437Z,85.10
2023-02-11T01:06:17.970Z,85.00
2023-02-11T01:08:47.151Z,85.20
2023-02-11T01:11:17.895Z,85.20
2023-02-11T01:13:46.273Z,85.20
2023-02-11T01:16:18.397Z,85.20
2023-02-11T01:18:46.226Z,85.00
2023-02-11T01:21:13.121Z,84.70
2023-02-11T01:23:40.311Z,84.50
2023-02-11T01:26:07.727Z,84.50
2023-02-11T01:28:34.639Z,84.50
2023-02-11T01:31:04.604Z,84.70
2023-02-11T01:33:33.047Z,84.90
2023-02-11T01:36:05.464Z,84.70
2023-02-11T01:38:35.486Z,84.40
2023-02-11T01:41:08.017Z,84.40
2023-02-11T01:43:41.443Z,84.30
2023-02-11T01:46:31.680Z,84.30
2023-02-11T01:49:06.860Z,84.60
2023-02-11T01:51:47.327Z,84.80
2023-02-11T01:54:39.866Z,84.60
2023-02-11T01:57:23.371Z,84.80
2023-02-11T01:59:56.670Z,84.90
2023-02-11T02:02:50.800Z,85.10
2023-02-11T02:05:59.697Z,85.00
2023-02-11T02:08:50.864Z,85.10
2023-02-11T02:11:18.034Z,85.00
2023-02-11T02:13:47.367Z,85.20
2023-02-11T02:16:19.284Z,85.20
2023-02-11T02:19:27.846Z,85.40
2023-02-11T02:22:19.319Z,85.60
2023-02-11T02:25:09.330Z,85.60
2023-02-11T02:27:42.414Z,85.60
2023-02-11T02:30:27.868Z,85.60
2023-02-11T02:33:25.126Z,85.50
2023-02-11T02:36:07.272Z,85.20
2023-02-11T02:38:39.912Z,84.90
2023-02-11T02:41:11.095Z,84.80
2023-02-11T02:43:43.227Z,84.50
2023-02-11T02:46:16.994Z,85.00
2023-02-11T02:48:45.087Z,84.70
2023-02-11T02:51:33.333Z,84.70
2023-02-11T02:54:18.055Z,84.80
2023-02-11T02:57:09.684Z,85.00
2023-02-11T02:59:58.190Z,85.20
2023-02-11T03:02:54.534Z,85.40
2023-02-11T03:05:54.575Z,85.70
2023-02-11T03:08:31.005Z,86.20
2023-02-11T03:11:01.776Z,86.40
2023-02-11T03:13:35.619Z,86.70
2023-02-11T03:16:09.056Z,86.80
2023-02-11T03:18:44.690Z,87.00
2023-02-11T03:21:14.162Z,87.20
2023-02-11T03:24:05.118Z,87.40
2023-02-11T03:26:41.130Z,87.50
2023-02-11T03:29:31.341Z,87.60
2023-02-11T03:32:22.454Z,87.70
2023-02-11T03:35:19.796Z,87.70
2023-02-11T03:37:58.019Z,87.90
2023-02-11T03:40:32.624Z,88.20
2023-02-11T03:43:05.117Z,88.30
2023-02-11T03:45:33.925Z,88.50
2023-02-11T03:48:08.855Z,88.50
2023-02-11T03:50:37.659Z,88.70
2023-02-11T03:53:05.875Z,88.70
2023-02-11T03:55:38.188Z,88.80
2023-02-11T03:58:05.377Z,88.60
2023-02-11T04:00:39.560Z,88.60
2023-02-11T04:03:08.355Z,88.50
2023-02-11T04:05:35.818Z,88.50
2023-02-11T04:08:03.789Z,88.30
2023-02-11T04:10:33.152Z,88.10
2023-02-11T04:13:00.211Z,87.90
2023-02-11T04:15:27.582Z,88.00
2023-02-11T04:17:55.757Z,88.00
2023-02-11T04:20:25.538Z,88.00
2023-02-11T04:22:55.044Z,87.80
2023-02-11T04:25:22.213Z,87.50
2023-02-11T04:27:51.574Z,86.80
2023-02-11T04:30:19.035Z,86.20
2023-02-11T04:32:46.561Z,86.10
2023-02-11T04:35:13.686Z,85.80
2023-02-11T04:37:40.794Z,85.90
2023-02-11T04:40:08.820Z,86.20
2023-02-11T04:42:35.645Z,86.30
2023-02-11T04:45:02.878Z,86.10
2023-02-11T04:47:30.025Z,85.80
2023-02-11T04:49:56.873Z,85.30
2023-02-11T04:52:25.862Z,85.10
2023-02-11T04:54:52.992Z,85.70
2023-02-11T04:57:20.129Z,85.60
2023-02-11T04:59:49.545Z,85.70
2023-02-11T05:02:16.809Z,85.90
2023-02-11T05:04:43.999Z,86.10
2023-02-11T05:07:13.399Z,86.10
2023-02-11T05:09:40.626Z,86.10
2023-02-11T05:12:08.221Z,86.30
2023-02-11T05:14:35.309Z,86.70
2023-02-11T05:17:05.151Z,87.10
2023-02-11T05:19:32.327Z,87.30
2023-02-11T05:22:03.085Z,87.40
2023-02-11T05:24:33.216Z,87.50
2023-02-11T05:27:01.125Z,87.80
2023-02-11T05:29:30.593Z,87.80
2023-02-11T05:31:59.450Z,87.70
2023-02-11T05:34:26.787Z,87.70
2023-02-11T05:36:54.116Z,87.50
2023-02-11T05:39:20.994Z,87.60
2023-02-11T05:41:48.038Z,88.10
2023-02-11T05:44:14.958Z,87.70
2023-02-11T05:46:43.732Z,87.40
2023-02-11T05:49:10.754Z,87.30
2023-02-11T05:51:37.733Z,87.30
2023-02-11T05:54:04.796Z,87.40
2023-02-11T05:56:31.627Z,87.30
2023-02-11T05:59:00.153Z,87.50
2023-02-11T06:01:27.457Z,87.90
2023-02-11T06:03:57.207Z,88.30
2023-02-11T06:06:24.361Z,88.00
2023-02-11T06:08:52.045Z,88.10
2023-02-11T06:11:19.145Z,88.30
2023-02-11T06:13:46.324Z,88.50
2023-02-11T06:16:13.215Z,88.80
2023-02-11T06:18:42.269Z,89.00
2023-02-11T06:21:10.936Z,89.10
2023-02-11T06:23:38.623Z,89.30
2023-02-11T06:26:10.322Z,89.60
2023-02-11T06:28:40.771Z,89.50
2023-02-11T06:31:10.084Z,89.60
2023-02-11T06:33:38.610Z,89.60
2023-02-11T06:36:12.178Z,89.80
2023-02-11T06:38:39.385Z,89.90
2023-02-11T06:41:22.445Z,90.10
2023-02-11T06:43:49.613Z,90.20
2023-02-11T06:46:18.447Z,90.10
2023-02-11T06:48:53.380Z,90.00
2023-02-11T06:51:20.287Z,89.80
2023-02-11T06:53:47.669Z,90.00
2023-02-11T06:56:22.024Z,90.00
2023-02-11T06:58:56.058Z,90.00
2023-02-11T07:01:27.436Z,90.00
2023-02-11T07:03:55.457Z,89.90
2023-02-11T07:06:27.692Z,89.40
2023-02-11T07:08:56.125Z,89.00
2023-02-11T07:11:30.846Z,89.00
2023-02-11T07:14:05.353Z,88.70
2023-02-11T07:16:35.208Z,88.90
2023-02-11T07:19:02.285Z,88.70
2023-02-11T07:21:34.157Z,88.80
2023-02-11T07:24:02.752Z,88.90
2023-02-11T07:26:30.320Z,88.90
2023-02-11T07:28:57.448Z,88.80
2023-02-11T07:31:30.060Z,88.70
2023-02-11T07:34:00.294Z,88.90
2023-02-11T07:36:29.362Z,88.40
2023-02-11T07:38:56.464Z,88.00
2023-02-11T07:41:24.483Z,87.40
2023-02-11T07:43:51.743Z,86.40
2023-02-11T07:46:24.741Z,85.80
2023-02-11T07:48:52.356Z,85.40
2023-02-11T07:51:24.773Z,84.60
2023-02-11T07:53:55.602Z,83.90
2023-02-11T07:56:23.883Z,83.70
2023-02-11T07:58:51.401Z,83.50
2023-02-11T08:01:27.432Z,83.10
2023-02-11T08:03:59.197Z,82.90
2023-02-11T08:06:29.222Z,83.00
2023-02-11T08:08:56.528Z,82.60
2023-02-11T08:11:28.233Z,82.20
2023-02-11T08:13:57.988Z,81.40
2023-02-11T08:16:36.537Z,80.20
2023-02-11T08:19:08.484Z,79.80
2023-02-11T08:21:35.884Z,79.30
2023-02-11T08:24:06.435Z,79.20
2023-02-11T08:26:39.905Z,79.30
2023-02-11T08:29:10.337Z,79.20
2023-02-11T08:31:45.473Z,79.30
2023-02-11T08:34:14.623Z,79.60
2023-02-11T08:36:42.983Z,80.30
2023-02-11T08:39:19.584Z,80.00
2023-02-11T08:41:52.537Z,79.70
2023-02-11T08:44:23.059Z,79.70
2023-02-11T08:46:50.604Z,79.50
2023-02-11T08:49:23.114Z,79.50
2023-02-11T08:51:50.704Z,79.80
2023-02-11T08:54:19.792Z,79.50
2023-02-11T08:56:50.777Z,79.30
2023-02-11T08:59:18.146Z,79.30
2023-02-11T09:01:47.984Z,79.10
2023-02-11T09:04:15.360Z,79.10
2023-02-11T09:06:42.434Z,79.40
2023-02-11T09:09:14.221Z,79.50
2023-02-11T09:11:43.592Z,79.30
2023-02-11T09:14:18.384Z,79.30
2023-02-11T09:16:52.161Z,79.40
2023-02-11T09:19:23.893Z,79.30
2023-02-11T09:21:51.184Z,78.90
2023-02-11T09:24:19.883Z,78.80
2023-02-11T09:26:46.891Z,78.50
2023-02-11T09:29:14.140Z,78.60
2023-02-11T09:31:41.809Z,78.40
2023-02-11T09:34:11.134Z,78.30
2023-02-11T09:36:40.799Z,78.40
2023-02-11T09:39:12.758Z,78.40
2023-02-11T09:41:48.593Z,77.60
2023-02-11T09:44:29.709Z,77.40
2023-02-11T09:47:03.286Z,76.50
2023-02-11T09:49:38.749Z,76.20
2023-02-11T09:52:21.276Z,75.90
2023-02-11T09:54:51.477Z,75.80
2023-02-11T09:57:28.140Z,75.60
2023-02-11T09:59:57.905Z,75.20
2023-02-11T10:02:38.281Z,75.20
2023-02-11T10:05:34.140Z,76.40
2023-02-11T10:08:29.746Z,76.20
2023-02-11T10:11:22.639Z,76.00
2023-02-11T10:14:19.962Z,76.50
2023-02-11T10:16:55.949Z,76.70
2023-02-11T10:19:31.058Z,76.60
2023-02-11T10:22:27.678Z,77.00
2023-02-11T10:25:00.396Z,77.10
2023-02-11T10:27:36.290Z,77.10
2023-02-11T10:30:11.907Z,76.80
2023-02-11T10:33:23.695Z,76.70
2023-02-11T10:35:51.252Z,76.20
2023-02-11T10:38:21.380Z,76.30
2023-02-11T10:40:51.037Z,75.70
2023-02-11T10:43:21.297Z,75.60
2023-02-11T10:45:52.849Z,74.90
2023-02-11T10:48:41.701Z,74.80
2023-02-11T10:51:14.566Z,74.70
2023-02-11T10:53:42.424Z,74.70
2023-02-11T10:56:16.654Z,74.00
2023-02-11T10:58:54.118Z,73.60
2023-02-11T11:01:24.848Z,73.20
2023-02-11T11:03:54.531Z,73.30
2023-02-11T11:06:39.554Z,73.10
2023-02-11T11:09:06.651Z,73.10
2023-02-11T11:11:35.477Z,73.10
2023-02-11T11:14:03.795Z,73.10
2023-02-11T11:16:35.431Z,72.80
2023-02-11T11:19:08.906Z,72.60
2023-02-11T11:21:55.059Z,72.60
2023-02-11T11:24:22.101Z,72.60
2023-02-11T11:26:52.441Z,72.60
2023-02-11T11:29:27.540Z,72.00
2023-02-11T11:32:06.095Z,72.20
2023-02-11T11:34:38.939Z,72.00
2023-02-11T11:37:20.216Z,72.10
2023-02-11T11:39:59.051Z,72.10
2023-02-11T11:42:30.500Z,72.30
2023-02-11T11:45:23.444Z,72.30
2023-02-11T11:48:27.850Z,72.80
2023-02-11T11:50:59.716Z,72.90
2023-02-11T11:53:36.462Z,72.30
2023-02-11T11:56:09.971Z,72.50
2023-02-11T11:58:38.701Z,72.80
2023-02-11T12:01:39.706Z,72.90
2023-02-11T12:04:19.992Z,73.30
2023-02-11T12:07:16.804Z,73.70
2023-02-11T12:10:04.989Z,74.00
2023-02-11T12:13:03.510Z,74.40
2023-02-11T12:15:52.197Z,74.50
2023-02-11T12:18:28.152Z,74.70
2023-02-11T12:21:25.320Z,74.90
2023-02-11T12:24:27.964Z,74.50
2023-02-11T12:27:18.978Z,75.00
2023-02-11T12:30:38.037Z,75.40
2023-02-11T12:33:26.725Z,75.50
2023-02-11T12:35:58.781Z,75.50
2023-02-11T12:38:35.136Z,76.40
2023-02-11T12:41:46.850Z,75.70
2023-02-11T12:44:39.635Z,76.00
2023-02-11T12:47:19.266Z,75.40
2023-02-11T12:49:51.746Z,74.60
2023-02-11T12:52:42.977Z,74.00
2023-02-11T12:55:37.384Z,73.60
2023-02-11T12:58:20.403Z,73.40
2023-02-11T13:01:00.652Z,73.40
2023-02-11T13:03:41.355Z,74.00
2023-02-11T13:06:13.401Z,74.10
2023-02-11T13:08:48.089Z,74.30
2023-02-11T13:11:22.923Z,74.50
2023-02-11T13:14:12.793Z,74.60
2023-02-11T13:16:44.726Z,74.90
2023-02-11T13:23:44.276Z,74.70
2023-02-11T13:26:26.848Z,75.20
2023-02-11T13:29:35.172Z,74.90
2023-02-11T13:32:13.563Z,75.50
2023-02-11T13:34:43.432Z,76.20
2023-02-11T13:37:27.806Z,76.10
2023-02-11T13:40:36.294Z,76.30
2023-02-11T13:43:05.740Z,76.00
2023-02-11T13:45:48.804Z,75.90
2023-02-11T13:48:18.809Z,76.20
2023-02-11T13:50:50.407Z,76.70
2023-02-11T13:53:18.604Z,77.00
2023-02-11T13:56:08.093Z,77.20
2023-02-11T13:58:40.260Z,77.60
2023-02-11T14:01:08.204Z,78.00
2023-02-11T14:03:57.037Z,78.10
2023-02-11T14:06:45.666Z,78.10
2023-02-11T14:09:13.555Z,77.80
2023-02-11T14:11:46.402Z,77.60
2023-02-11T14:14:24.015Z,78.10
2023-02-11T14:17:02.538Z,78.50
2023-02-11T14:19:33.794Z,79.00
2023-02-11T14:22:08.194Z,78.80
2023-02-11T14:24:35.246Z,78.90
2023-02-11T14:27:31.986Z,79.00
2023-02-11T14:30:34.558Z,79.20
2023-02-11T14:33:41.102Z,79.00
2023-02-11T14:36:34.912Z,79.30
2023-02-11T14:39:33.760Z,79.40
2023-02-11T14:42:04.734Z,79.60
2023-02-11T14:44:33.733Z,80.20
2023-02-11T14:47:01.136Z,80.30
2023-02-11T14:49:36.520Z,80.10
2023-02-11T14:52:20.941Z,80.30
2023-02-11T14:54:51.683Z,80.10
2023-02-11T14:57:20.544Z,80.40
2023-02-11T14:59:55.799Z,80.50
2023-02-11T15:02:28.930Z,80.70
2023-02-11T15:05:26.215Z,80.80
2023-02-11T15:07:56.732Z,81.10
2023-02-11T15:10:38.198Z,81.20
2023-02-11T15:13:06.233Z,81.50
2023-02-11T15:15:40.838Z,81.80
2023-02-11T15:18:24.345Z,82.10
2023-02-11T15:20:55.013Z,82.40
2023-02-11T15:23:27.886Z,82.60
2023-02-11T15:26:04.805Z,82.70
2023-02-11T15:28:35.208Z,82.80
2023-02-11T15:31:05.883Z,83.00
2023-02-11T15:33:33.079Z,83.00
2023-02-11T15:36:02.982Z,83.10
2023-02-11T15:38:30.577Z,83.10
2023-02-11T15:41:04.238Z,82.90
2023-02-11T15:43:53.442Z,82.90
2023-02-11T15:46:23.464Z,82.90
2023-02-11T15:48:56.142Z,82.90
2023-02-11T15:51:25.307Z,83.00
2023-02-11T15:54:01.841Z,83.10
2023-02-11T15:56:35.403Z,83.20
2023-02-11T15:59:16.229Z,83.40
2023-02-11T16:01:45.079Z,83.60
2023-02-11T16:04:25.131Z,83.70
2023-02-11T16:06:53.937Z,83.80
2023-02-11T16:09:42.810Z,84.40
2023-02-11T16:12:30.096Z,84.20
2023-02-11T16:15:00.036Z,84.20
2023-02-11T16:17:29.959Z,84.40
2023-02-11T16:20:06.274Z,84.60
2023-02-11T16:22:40.327Z,84.60
2023-02-11T16:25:25.019Z,85.30
2023-02-11T16:27:55.354Z,84.90
2023-02-11T16:30:48.387Z,85.10
2023-02-11T16:33:17.491Z,85.40
2023-02-11T16:35:49.046Z,85.30
2023-02-11T16:38:20.370Z,85.50
2023-02-11T16:41:06.986Z,86.00
2023-02-11T16:43:34.664Z,85.80
2023-02-11T16:48:47.239Z,86.40
2023-02-11T16:51:41.021Z,86.30
2023-02-11T16:54:18.170Z,86.80
2023-02-11T16:56:51.515Z,87.10
2023-02-11T16:59:26.189Z,87.30
2023-02-11T17:02:47.878Z,87.20
2023-02-11T17:09:11.421Z,87.50
2023-02-11T17:11:47.234Z,87.60
2023-02-11T17:14:20.550Z,87.90
2023-02-11T17:16:53.765Z,87.90
2023-02-11T17:19:31.677Z,88.00
2023-02-11T17:22:10.163Z,87.70
2023-02-11T17:24:40.898Z,88.00
2023-02-11T17:27:17.399Z,87.90
2023-02-11T17:30:21.416Z,88.00
2023-02-11T17:32:56.762Z,87.90
2023-02-11T17:35:27.050Z,88.10
2023-02-11T17:37:54.468Z,88.20
2023-02-11T17:40:21.901Z,88.30
2023-02-11T17:42:50.415Z,88.20
2023-02-11T17:45:21.147Z,88.30
2023-02-11T17:47:49.708Z,88.40
2023-02-11T17:50:22.814Z,88.40
2023-02-11T17:52:50.576Z,88.50
2023-02-11T17:55:17.776Z,88.70
2023-02-11T17:57:45.418Z,88.80
2023-02-11T18:00:12.946Z,88.70
2023-02-11T18:02:42.760Z,88.70
2023-02-11T18:05:10.471Z,88.90
2023-02-11T18:07:38.256Z,88.70
2023-02-11T18:10:09.417Z,88.80
2023-02-11T18:12:36.769Z,88.80
2023-02-11T18:15:04.630Z,88.80
2023-02-11T18:17:34.346Z,88.80
2023-02-11T18:20:05.395Z,89.50
2023-02-11T18:22:38.753Z,89.10
2023-02-11T18:25:13.534Z,89.10
2023-02-11T18:27:40.827Z,89.10
2023-02-11T18:30:08.571Z,89.40
2023-02-11T18:32:36.240Z,89.40
2023-02-11T18:35:05.732Z,89.50
2023-02-11T18:37:33.212Z,89.50
2023-02-11T18:40:03.910Z,89.40
2023-02-11T18:42:37.220Z,89.60
2023-02-11T18:45:09.742Z,89.60
2023-02-11T18:47:38.163Z,89.70
2023-02-11T18:50:11.894Z,89.80
2023-02-11T18:52:40.308Z,89.80
2023-02-11T18:55:08.682Z,89.80
2023-02-11T18:57:41.092Z,89.80
2023-02-11T19:00:12.366Z,89.70
2023-02-11T19:02:39.670Z,89.90
2023-02-11T19:05:08.337Z,90.00
2023-02-11T19:07:35.454Z,89.90
2023-02-11T19:10:08.330Z,89.90
2023-02-11T19:12:36.601Z,89.90
2023-02-11T19:15:04.391Z,90.00
2023-02-11T19:17:34.442Z,90.00
2023-02-11T19:20:01.657Z,90.00
2023-02-11T19:22:28.816Z,89.80
2023-02-11T19:24:56.075Z,89.80
2023-02-11T19:27:26.563Z,89.80
2023-02-11T19:29:54.106Z,89.90
2023-02-11T19:32:22.432Z,89.90
2023-02-11T19:34:49.529Z,89.90
2023-02-11T19:37:18.076Z,90.00
2023-02-11T19:39:51.271Z,90.00
2023-02-11T19:42:19.113Z,90.00
2023-02-11T19:44:50.990Z,90.00
2023-02-11T19:47:28.206Z,90.10
2023-02-11T19:49:57.282Z,90.30
2023-02-11T19:52:27.035Z,90.30
2023-02-11T19:54:57.331Z,90.50
2023-02-11T19:57:28.242Z,90.60
2023-02-11T19:59:57.532Z,90.50
2023-02-11T20:02:24.886Z,90.50
2023-02-11T20:04:52.145Z,90.50
2023-02-11T20:07:18.953Z,90.50
2023-02-11T20:09:46.394Z,90.50
2023-02-11T20:12:15.884Z,90.50
2023-02-11T20:14:45.417Z,90.50
2023-02-11T20:17:12.953Z,90.40
2023-02-11T20:19:41.342Z,90.30
2023-02-11T20:22:09.430Z,90.50
2023-02-11T20:24:36.810Z,90.50
2023-02-11T20:27:08.245Z,90.50
2023-02-11T20:29:36.467Z,90.50
2023-02-11T20:32:06.441Z,90.50
2023-02-11T20:34:36.925Z,90.50
2023-02-11T20:37:07.338Z,90.50
2023-02-11T20:39:38.536Z,90.40
2023-02-11T20:42:05.771Z,90.50
2023-02-11T20:44:37.364Z,90.40
2023-02-11T20:47:10.491Z,90.50
2023-02-11T20:49:37.657Z,90.50
2023-02-11T20:52:08.982Z,90.50
2023-02-11T20:54:44.002Z,90.50
2023-02-11T20:57:14.269Z,90.50
2023-02-11T20:59:41.603Z,90.70
2023-02-11T21:02:24.779Z,90.50
2023-02-11T21:04:59.372Z,90.70
2023-02-11T21:07:29.876Z,90.80
2023-02-11T21:14:01.417Z,90.60
2023-02-11T21:16:33.538Z,90.40
2023-02-11T21:19:05.808Z,90.00
2023-02-11T21:21:36.754Z,90.00
2023-02-11T21:24:08.421Z,90.00
2023-02-11T21:26:40.173Z,90.00
2023-02-11T21:29:09.735Z,90.00
2023-02-11T21:31:42.570Z,90.10
2023-02-11T21:34:16.343Z,90.10
2023-02-11T21:36:46.709Z,90.20
2023-02-11T21:39:14.133Z,90.30
2023-02-11T21:41:42.666Z,90.20
2023-02-11T21:44:09.807Z,90.30
2023-02-11T21:46:37.154Z,90.30
2023-02-11T21:49:04.823Z,90.30
2023-02-11T21:51:32.059Z,90.30
2023-02-11T21:54:07.220Z,90.30
2023-02-11T21:56:36.783Z,90.40
2023-02-11T22:02:15.945Z,90.40
2023-02-11T22:04:52.216Z,90.40
2023-02-11T22:07:21.157Z,90.60
2023-02-11T22:09:52.641Z,90.50
2023-02-11T22:12:21.620Z,90.50
2023-02-11T22:14:56.076Z,90.60
2023-02-11T22:17:32.364Z,90.70
2023-02-11T22:20:03.449Z,90.50
2023-02-11T22:22:31.557Z,90.40
2023-02-11T22:25:04.212Z,90.70
2023-02-11T22:27:31.594Z,90.90
2023-02-11T22:29:58.402Z,90.90
2023-02-11T22:32:25.604Z,90.80
2023-02-11T22:34:53.550Z,90.70
2023-02-11T22:37:21.110Z,90.60
2023-02-11T22:39:51.043Z,90.60
2023-02-11T22:42:20.483Z,90.60
2023-02-11T22:44:49.788Z,90.60
2023-02-11T22:47:16.589Z,90.60
2023-02-11T22:49:43.712Z,90.60
2023-02-11T22:52:10.861Z,90.60
2023-02-11T22:54:39.886Z,90.50
2023-02-11T22:57:06.976Z,90.50
2023-02-11T22:59:34.212Z,90.50
2023-02-11T23:02:01.530Z,90.50
2023-02-11T23:04:28.393Z,90.50
2023-02-11T23:06:57.682Z,90.40
2023-02-11T23:09:27.186Z,90.30
2023-02-11T23:11:58.107Z,90.40
2023-02-11T23:14:27.436Z,90.60
2023-02-11T23:16:54.547Z,90.70
2023-02-11T23:19:24.246Z,90.80
2023-02-11T23:21:52.512Z,90.70
2023-02-11T23:24:19.751Z,90.70
2023-02-11T23:26:46.711Z,90.70
2023-02-11T23:29:13.951Z,90.70
2023-02-11T23:31:44.232Z,90.70
2023-02-11T23:34:12.066Z,90.70
2023-02-11T23:36:39.254Z,90.70
2023-02-11T23:39:06.243Z,90.70
2023-02-11T23:41:33.360Z,90.80
2023-02-11T23:44:00.402Z,90.80
2023-02-11T23:46:30.062Z,90.80
2023-02-11T23:49:01.764Z,90.80
2023-02-11T23:51:30.851Z,90.80
2023-02-11T23:53:57.957Z,90.90
2023-02-11T23:56:30.865Z,90.90
2023-02-11T23:58:59.703Z,90.90
